Holtsville, New York
Current Conditions -  °F | °C
As of 8:56 AM on Thursday 27 Nov 2014 (Local Time) from KISP Reporting Station
Broken Clouds Broken Clouds  
Wind Chill: 30°   Ceiling: 12000
Heat Index: 37°   Visibility: 10mi
Dew Point: 30°   Wind: 10mph
Humidity: 76%   Direction: 350°N
Pressure: 29.96"   Gusts: NA
Location:  40.81°N, 73.04°W
Report Text: KISP 271356Z 35009KT 10SM SCT038 SCT100 BKN120 03/M01 A2996 RMK AO2 SNE18 SLP145 P0000 T00281011
Loading
Personal Weather Stations






























Interactive Weather Map New forecast layout! Learn more

10-Day Weather Forecast

Advertisements
Track Severe Weather on mobile